createdAt,value
2022-08-07T00:02:37.221Z,17.29
2022-08-07T00:07:19.979Z,15.35
2022-08-07T00:12:24.031Z,13.80
2022-08-07T00:17:28.702Z,14.68
2022-08-07T00:22:38.247Z,17.07
2022-08-07T00:27:52.296Z,15.21
2022-08-07T00:32:58.353Z,13.71
2022-08-07T00:38:01.800Z,16.08
2022-08-07T00:43:09.958Z,16.51
2022-08-07T00:48:13.599Z,14.43
2022-08-07T00:53:16.769Z,14.92
2022-08-07T00:58:21.417Z,16.72
2022-08-07T01:03:54.711Z,14.82
2022-08-07T01:08:51.394Z,13.78
2022-08-07T01:13:56.888Z,16.48
2022-08-07T01:19:00.593Z,15.83
2022-08-07T01:24:04.099Z,13.89
2022-08-07T01:29:06.910Z,14.65
2022-08-07T01:34:12.460Z,17.03
2022-08-07T01:39:16.377Z,15.25
2022-08-07T01:44:19.751Z,13.74
2022-08-07T01:49:22.923Z,15.14
2022-08-07T01:54:36.527Z,16.99
2022-08-07T01:59:50.526Z,14.96
2022-08-07T02:05:04.703Z,15.27
2022-08-07T02:10:08.838Z,16.73
2022-08-07T02:15:22.730Z,14.69
2022-08-07T02:20:27.363Z,13.50
2022-08-07T02:26:31.114Z,15.81
2022-08-07T02:30:57.784Z,16.69
2022-08-07T02:36:28.341Z,14.54
2022-08-07T02:41:37.093Z,16.03
2022-08-07T02:46:46.845Z,16.82
2022-08-07T02:51:59.156Z,14.66
2022-08-07T02:57:03.321Z,15.10
2022-08-07T03:02:10.357Z,16.67
2022-08-07T03:07:15.901Z,14.67
2022-08-07T03:12:22.521Z,15.62
2022-08-07T03:17:36.443Z,16.80
2022-08-07T03:22:58.691Z,14.64
2022-08-07T03:28:09.582Z,15.70
2022-08-07T03:33:32.286Z,16.81
2022-08-07T03:38:44.035Z,14.83
2022-08-07T03:43:56.859Z,16.94
2022-08-07T03:49:02.814Z,16.17
2022-08-07T03:54:36.210Z,14.35
2022-08-07T03:59:29.432Z,16.58
2022-08-07T04:04:32.953Z,15.74
2022-08-07T04:09:45.252Z,15.39
2022-08-07T04:14:54.366Z,17.46
2022-08-07T04:19:59.091Z,15.66
2022-08-07T04:25:02.341Z,15.78
2022-08-07T04:30:13.370Z,17.06
2022-08-07T04:35:24.744Z,15.37
2022-08-07T04:40:30.033Z,16.91
2022-08-07T04:46:03.323Z,16.43
2022-08-07T04:51:21.476Z,16.72
2022-08-07T04:58:13.929Z,17.32
2022-08-07T05:02:53.259Z,15.55
2022-08-07T05:08:59.916Z,17.43
2022-08-07T05:14:53.108Z,16.09
2022-08-07T05:19:44.179Z,18.11
2022-08-07T05:24:51.309Z,16.71
2022-08-07T05:29:55.360Z,17.94
2022-08-07T05:35:00.294Z,17.89
2022-08-07T05:40:18.338Z,16.65
2022-08-07T05:45:46.099Z,18.81
2022-08-07T05:50:47.682Z,17.45
2022-08-07T05:56:01.872Z,18.73
2022-08-07T06:01:08.481Z,18.34
2022-08-07T06:06:18.873Z,17.70
2022-08-07T06:11:22.081Z,19.24
2022-08-07T06:16:29.246Z,17.67
2022-08-07T06:22:15.683Z,19.02
2022-08-07T06:26:56.249Z,20.10
2022-08-07T06:31:58.826Z,18.53
2022-08-07T06:37:05.002Z,19.63
2022-08-07T06:42:40.001Z,20.00
2022-08-07T06:47:57.265Z,18.79
2022-08-07T06:53:04.443Z,18.47
2022-08-07T06:58:11.244Z,21.08
2022-08-07T07:03:17.248Z,20.71
2022-08-07T07:08:26.439Z,19.58
2022-08-07T07:13:58.141Z,19.03
2022-08-07T07:19:54.557Z,18.83
2022-08-07T07:24:31.996Z,18.80
2022-08-07T07:30:08.984Z,18.91
2022-08-07T07:35:04.173Z,19.09
2022-08-07T07:40:15.108Z,19.30
2022-08-07T07:45:22.792Z,19.46
2022-08-07T07:50:47.982Z,19.54
2022-08-07T07:56:00.570Z,19.62
2022-08-07T08:02:01.849Z,19.70
2022-08-07T08:06:31.956Z,19.56
2022-08-07T08:11:47.370Z,19.74
2022-08-07T08:18:36.991Z,20.28
2022-08-07T08:22:54.192Z,20.36
2022-08-07T08:28:04.013Z,20.22
2022-08-07T08:33:10.361Z,20.37
2022-08-07T08:38:29.393Z,20.60
2022-08-07T08:44:02.880Z,20.97
2022-08-07T08:49:11.482Z,21.23
2022-08-07T08:54:30.117Z,21.26
2022-08-07T08:59:48.498Z,21.29
2022-08-07T09:05:09.931Z,21.19
2022-08-07T09:10:25.538Z,21.05
2022-08-07T09:16:23.336Z,21.24
2022-08-07T09:22:10.253Z,21.75
2022-08-07T09:27:09.010Z,22.04
2022-08-07T09:32:26.524Z,22.15
2022-08-07T09:38:10.516Z,22.11
2022-08-07T09:43:18.047Z,22.37
2022-08-07T09:48:50.303Z,22.81
2022-08-07T09:54:02.802Z,23.19
2022-08-07T09:59:44.305Z,23.47
2022-08-07T10:05:14.320Z,23.66
2022-08-07T10:11:16.502Z,23.65
2022-08-07T10:16:38.382Z,23.35
2022-08-07T10:22:15.765Z,23.25
2022-08-07T10:27:46.278Z,23.32
2022-08-07T10:33:14.915Z,23.35
2022-08-07T10:38:47.933Z,23.32
2022-08-07T10:44:33.882Z,23.28
2022-08-07T10:50:09.770Z,23.78
2022-08-07T10:55:42.498Z,24.37
2022-08-07T11:01:22.280Z,24.74
2022-08-07T11:06:38.601Z,24.40
2022-08-07T11:11:51.804Z,23.93
2022-08-07T11:17:02.196Z,23.50
2022-08-07T11:22:27.199Z,23.28
2022-08-07T11:28:19.396Z,23.31
2022-08-07T11:33:53.600Z,23.59
2022-08-07T11:39:07.625Z,24.06
2022-08-07T11:44:32.420Z,24.61
2022-08-07T11:50:30.997Z,24.83
2022-08-07T11:56:09.527Z,24.62
2022-08-07T12:01:59.795Z,24.98
2022-08-07T12:07:20.360Z,25.29
2022-08-07T12:12:53.413Z,25.41
2022-08-07T12:18:11.465Z,25.59
2022-08-07T12:24:07.102Z,25.60
2022-08-07T12:29:44.125Z,25.56
2022-08-07T12:34:53.401Z,25.37
2022-08-07T12:40:01.430Z,24.95
2022-08-07T12:45:13.724Z,24.60
2022-08-07T12:50:48.994Z,24.25
2022-08-07T12:56:09.284Z,24.13
2022-08-07T13:01:43.397Z,24.17
2022-08-07T13:08:12.537Z,24.20
2022-08-07T13:13:04.835Z,24.18
2022-08-07T13:18:26.881Z,24.27
2022-08-07T13:24:04.217Z,24.47
2022-08-07T13:29:47.787Z,24.78
2022-08-07T13:35:09.686Z,24.98
2022-08-07T13:40:47.298Z,25.21
2022-08-07T13:46:11.455Z,25.85
2022-08-07T13:52:16.395Z,26.55
2022-08-07T13:56:59.905Z,26.74
2022-08-07T14:02:08.724Z,26.53
2022-08-07T14:07:15.717Z,26.17
2022-08-07T14:12:54.094Z,25.87
2022-08-07T14:18:24.305Z,25.45
2022-08-07T14:24:00.673Z,24.87
2022-08-07T14:29:01.157Z,24.49
2022-08-07T14:34:12.313Z,24.20
2022-08-07T14:40:15.700Z,24.06
2022-08-07T14:44:52.535Z,23.92
2022-08-07T14:49:59.265Z,23.88
2022-08-07T14:55:03.835Z,23.91
2022-08-07T15:00:09.273Z,24.06
2022-08-07T15:05:20.127Z,24.39
2022-08-07T15:10:30.148Z,24.66
2022-08-07T15:15:40.632Z,24.80
2022-08-07T15:20:55.013Z,24.57
2022-08-07T15:26:01.912Z,24.21
2022-08-07T15:31:09.518Z,24.04
2022-08-07T15:36:13.886Z,24.00
2022-08-07T15:47:19.713Z,25.81
2022-08-07T15:52:30.034Z,27.60
2022-08-07T15:57:47.785Z,29.02
2022-08-07T16:02:55.811Z,30.00
2022-08-07T16:08:31.347Z,30.93
2022-08-07T16:14:03.259Z,31.14
2022-08-07T16:19:42.770Z,30.04
2022-08-07T16:24:59.727Z,29.84
2022-08-07T16:30:30.198Z,30.57
2022-08-07T16:35:56.540Z,30.55
2022-08-07T16:41:48.708Z,29.09
2022-08-07T16:47:53.002Z,27.55
2022-08-07T16:54:01.212Z,27.12
2022-08-07T16:59:14.770Z,28.58
2022-08-07T17:04:57.527Z,30.01
2022-08-07T17:10:32.871Z,31.19
2022-08-07T17:15:44.586Z,31.54
2022-08-07T17:20:55.085Z,31.21
2022-08-07T17:26:03.889Z,29.57
2022-08-07T17:31:16.497Z,27.73
2022-08-07T17:36:32.577Z,26.55
2022-08-07T17:42:11.927Z,25.89
2022-08-07T17:47:38.357Z,25.07
2022-08-07T17:52:59.785Z,24.02
2022-08-07T17:58:09.449Z,22.97
2022-08-07T18:04:04.110Z,22.06
2022-08-07T18:09:05.868Z,21.28
2022-08-07T18:14:23.915Z,20.69
2022-08-07T18:21:07.008Z,20.19
2022-08-07T18:25:19.041Z,19.75
2022-08-07T18:30:38.105Z,19.40
2022-08-07T18:35:57.408Z,19.06
2022-08-07T18:41:16.814Z,18.71
2022-08-07T18:46:24.703Z,18.39
2022-08-07T18:52:37.901Z,18.11
2022-08-07T18:57:58.488Z,17.85
2022-08-07T19:03:19.893Z,17.61
2022-08-07T19:08:53.069Z,17.41
2022-08-07T19:14:08.082Z,17.22
2022-08-07T19:19:37.855Z,17.02
2022-08-07T19:24:46.285Z,16.81
2022-08-07T19:30:58.673Z,16.60
2022-08-07T19:35:26.781Z,16.40
2022-08-07T19:40:50.199Z,16.25
2022-08-07T19:46:05.988Z,16.11
2022-08-07T19:51:20.421Z,15.98
2022-08-07T19:57:52.448Z,15.86
2022-08-07T20:01:57.535Z,15.74
2022-08-07T20:07:01.253Z,15.64
2022-08-07T20:12:34.922Z,15.54
2022-08-07T20:17:32.829Z,15.45
2022-08-07T20:22:47.099Z,16.99
2022-08-07T20:27:58.445Z,20.28
2022-08-07T20:33:09.168Z,19.64
2022-08-07T20:38:32.702Z,17.95
2022-08-07T20:43:38.535Z,17.09
2022-08-07T20:49:54.560Z,16.49
2022-08-07T20:54:29.824Z,16.06
2022-08-07T21:00:06.804Z,15.78
2022-08-07T21:05:04.674Z,17.27
2022-08-07T21:10:25.192Z,20.32
2022-08-07T21:15:48.127Z,19.04
2022-08-07T21:21:01.804Z,17.74
2022-08-07T21:26:11.088Z,17.09
2022-08-07T21:32:42.377Z,16.66
2022-08-07T21:37:57.952Z,16.28
2022-08-07T21:43:16.361Z,15.97
2022-08-07T21:48:34.567Z,15.74
2022-08-07T21:53:52.891Z,15.58
2022-08-07T21:59:04.901Z,17.02
2022-08-07T22:04:17.564Z,20.28
2022-08-07T22:09:27.480Z,19.39
2022-08-07T22:15:00.532Z,17.94
2022-08-07T22:20:07.086Z,17.19
2022-08-07T22:25:20.302Z,16.71
2022-08-07T22:30:40.263Z,16.25
2022-08-07T22:35:57.203Z,15.90
2022-08-07T22:42:02.512Z,15.58
2022-08-07T22:47:25.431Z,15.31
2022-08-07T22:52:50.160Z,17.19
2022-08-07T22:58:15.348Z,20.27
2022-08-07T23:03:27.503Z,19.21
2022-08-07T23:08:57.687Z,17.75
2022-08-07T23:14:23.320Z,16.84
2022-08-07T23:20:51.293Z,16.17
2022-08-07T23:26:05.662Z,15.54
2022-08-07T23:32:49.695Z,16.97
2022-08-07T23:37:31.586Z,19.90
2022-08-07T23:42:53.449Z,18.18
2022-08-07T23:48:54.275Z,16.82
2022-08-07T23:54:28.465Z,15.86
